Terminal Aerodrome Forecast
Issued by NWS

Home | Current Version | Previous Version | Text Only | Print | Product List | Glossary On
Versions: 1 2 3 4 5 6 7 8 9 10 11 12 13 14 15 16 17 18 19 20 21 22 23 24 25 26 27 28 29 30 31 32 33 34 35 36 37
000
FTUS43 KGRB 230500
TAFRHI
TAF
KRHI 230520Z 2306/2406 08009KT 4SM -SN OVC008
      TEMPO 2306/2310 2SM -SN OVC005
     FM231000 08008KT 3SM -SN BR OVC006
      TEMPO 2310/2314 2SM -SN OVC004
     FM231400 07008KT 1SM -SN BR OVC003
     FM232100 05006KT 1 1/2SM -FZDZSN BR OVC002
     FM240200 33005KT 4SM BR OVC008=

USA.gov is the U.S. government's official web portal to all federal, state and local government web resources and services.